sensor_id;sensor_type;location;lat;lon;timestamp;P1;durP1;ratioP1;P2;durP2;ratioP2
61907;SDS011;47864;52.526;19.672;2023-07-30T00:00:39;20.00;;;5.00;;
61907;SDS011;47864;52.526;19.672;2023-07-30T00:02:40;6.32;;;4.20;;
61907;SDS011;47864;52.526;19.672;2023-07-30T00:04:42;7.10;;;4.32;;
61907;SDS011;47864;52.526;19.672;2023-07-30T00:06:44;8.40;;;4.55;;
61907;SDS011;47864;52.526;19.672;2023-07-30T00:08:46;6.68;;;4.13;;
61907;SDS011;47864;52.526;19.672;2023-07-30T00:10:47;10.00;;;4.95;;
61907;SDS011;47864;52.526;19.672;2023-07-30T00:12:49;8.82;;;4.93;;
61907;SDS011;47864;52.526;19.672;2023-07-30T00:14:50;9.65;;;4.32;;
61907;SDS011;47864;52.526;19.672;2023-07-30T00:16:52;8.68;;;4.72;;
61907;SDS011;47864;52.526;19.672;2023-07-30T00:18:53;10.40;;;4.70;;
61907;SDS011;47864;52.526;19.672;2023-07-30T00:20:55;11.38;;;4.72;;
61907;SDS011;47864;52.526;19.672;2023-07-30T00:22:56;10.25;;;5.30;;
61907;SDS011;47864;52.526;19.672;2023-07-30T00:24:58;7.90;;;4.65;;
61907;SDS011;47864;52.526;19.672;2023-07-30T00:26:59;10.05;;;5.03;;
61907;SDS011;47864;52.526;19.672;2023-07-30T00:29:01;7.75;;;4.40;;
61907;SDS011;47864;52.526;19.672;2023-07-30T00:31:02;17.67;;;4.47;;
61907;SDS011;47864;52.526;19.672;2023-07-30T00:33:04;11.57;;;4.20;;
61907;SDS011;47864;52.526;19.672;2023-07-30T00:35:06;9.20;;;3.90;;
61907;SDS011;47864;52.526;19.672;2023-07-30T00:37:08;8.98;;;4.38;;
61907;SDS011;47864;52.526;19.672;2023-07-30T00:39:09;11.00;;;4.07;;
61907;SDS011;47864;52.526;19.672;2023-07-30T00:41:11;14.75;;;4.63;;
61907;SDS011;47864;52.526;19.672;2023-07-30T00:43:12;7.28;;;3.72;;
61907;SDS011;47864;52.526;19.672;2023-07-30T00:45:14;8.75;;;4.05;;
61907;SDS011;47864;52.526;19.672;2023-07-30T00:47:16;8.38;;;3.80;;
61907;SDS011;47864;52.526;19.672;2023-07-30T00:49:18;9.15;;;4.20;;
61907;SDS011;47864;52.526;19.672;2023-07-30T00:51:20;10.35;;;4.20;;
61907;SDS011;47864;52.526;19.672;2023-07-30T00:53:21;6.88;;;3.80;;
61907;SDS011;47864;52.526;19.672;2023-07-30T00:55:25;11.23;;;4.07;;
61907;SDS011;47864;52.526;19.672;2023-07-30T00:57:27;7.68;;;3.85;;
61907;SDS011;47864;52.526;19.672;2023-07-30T00:59:28;8.27;;;3.60;;
61907;SDS011;47864;52.526;19.672;2023-07-30T01:01:30;6.25;;;3.78;;
61907;SDS011;47864;52.526;19.672;2023-07-30T01:03:35;6.15;;;3.28;;
61907;SDS011;47864;52.526;19.672;2023-07-30T01:05:38;7.25;;;3.58;;
61907;SDS011;47864;52.526;19.672;2023-07-30T01:07:39;8.00;;;3.50;;
61907;SDS011;47864;52.526;19.672;2023-07-30T01:09:41;11.57;;;4.00;;
61907;SDS011;47864;52.526;19.672;2023-07-30T01:11:43;8.93;;;3.55;;
61907;SDS011;47864;52.526;19.672;2023-07-30T01:13:45;5.60;;;3.63;;
61907;SDS011;47864;52.526;19.672;2023-07-30T01:15:49;7.95;;;3.70;;
61907;SDS011;47864;52.526;19.672;2023-07-30T01:17:50;6.22;;;3.45;;
61907;SDS011;47864;52.526;19.672;2023-07-30T01:19:53;7.90;;;3.60;;
61907;SDS011;47864;52.526;19.672;2023-07-30T01:21:54;8.13;;;3.47;;
61907;SDS011;47864;52.526;19.672;2023-07-30T01:23:56;11.45;;;3.60;;
61907;SDS011;47864;52.526;19.672;2023-07-30T01:26:03;6.57;;;3.30;;
61907;SDS011;47864;52.526;19.672;2023-07-30T01:28:09;8.23;;;3.42;;
61907;SDS011;47864;52.526;19.672;2023-07-30T01:30:21;9.80;;;3.50;;
61907;SDS011;47864;52.526;19.672;2023-07-30T01:32:28;7.70;;;3.78;;
61907;SDS011;47864;52.526;19.672;2023-07-30T01:34:30;5.47;;;3.40;;
61907;SDS011;47864;52.526;19.672;2023-07-30T01:36:38;6.50;;;3.55;;
61907;SDS011;47864;52.526;19.672;2023-07-30T01:38:42;8.50;;;4.28;;
61907;SDS011;47864;52.526;19.672;2023-07-30T01:40:44;7.67;;;4.50;;
61907;SDS011;47864;52.526;19.672;2023-07-30T01:42:45;7.55;;;3.47;;
61907;SDS011;47864;52.526;19.672;2023-07-30T01:44:47;8.50;;;3.67;;
61907;SDS011;47864;52.526;19.672;2023-07-30T01:46:48;7.88;;;4.32;;
61907;SDS011;47864;52.526;19.672;2023-07-30T01:48:50;5.82;;;4.00;;
61907;SDS011;47864;52.526;19.672;2023-07-30T01:50:51;6.95;;;4.35;;
61907;SDS011;47864;52.526;19.672;2023-07-30T01:52:53;14.85;;;4.80;;
61907;SDS011;47864;52.526;19.672;2023-07-30T01:54:54;7.25;;;4.15;;
61907;SDS011;47864;52.526;19.672;2023-07-30T01:56:57;8.10;;;4.05;;
61907;SDS011;47864;52.526;19.672;2023-07-30T01:58:58;10.65;;;4.80;;
61907;SDS011;47864;52.526;19.672;2023-07-30T02:01:00;8.05;;;4.68;;
61907;SDS011;47864;52.526;19.672;2023-07-30T02:03:01;9.40;;;5.20;;
61907;SDS011;47864;52.526;19.672;2023-07-30T02:05:03;8.68;;;4.80;;
61907;SDS011;47864;52.526;19.672;2023-07-30T02:07:05;6.88;;;5.00;;
61907;SDS011;47864;52.526;19.672;2023-07-30T02:09:06;16.08;;;6.43;;
61907;SDS011;47864;52.526;19.672;2023-07-30T02:11:08;9.63;;;4.75;;
61907;SDS011;47864;52.526;19.672;2023-07-30T02:13:10;10.23;;;4.60;;
61907;SDS011;47864;52.526;19.672;2023-07-30T02:15:11;9.43;;;4.95;;
61907;SDS011;47864;52.526;19.672;2023-07-30T02:17:13;8.30;;;4.95;;
61907;SDS011;47864;52.526;19.672;2023-07-30T02:19:14;9.60;;;5.10;;
61907;SDS011;47864;52.526;19.672;2023-07-30T02:21:16;7.32;;;4.70;;
61907;SDS011;47864;52.526;19.672;2023-07-30T02:23:17;10.95;;;4.53;;
61907;SDS011;47864;52.526;19.672;2023-07-30T02:25:19;7.80;;;4.50;;
61907;SDS011;47864;52.526;19.672;2023-07-30T02:27:20;9.40;;;5.05;;
61907;SDS011;47864;52.526;19.672;2023-07-30T02:29:22;10.32;;;5.13;;
61907;SDS011;47864;52.526;19.672;2023-07-30T02:31:23;11.40;;;5.43;;
61907;SDS011;47864;52.526;19.672;2023-07-30T02:33:25;9.63;;;5.80;;
61907;SDS011;47864;52.526;19.672;2023-07-30T02:35:26;9.60;;;5.57;;
61907;SDS011;47864;52.526;19.672;2023-07-30T02:37:28;10.70;;;6.22;;
61907;SDS011;47864;52.526;19.672;2023-07-30T02:39:29;13.05;;;5.88;;
61907;SDS011;47864;52.526;19.672;2023-07-30T02:41:31;12.10;;;6.80;;
61907;SDS011;47864;52.526;19.672;2023-07-30T02:43:33;13.52;;;6.45;;
61907;SDS011;47864;52.526;19.672;2023-07-30T02:45:34;13.73;;;6.55;;
61907;SDS011;47864;52.526;19.672;2023-07-30T02:47:36;14.32;;;7.10;;
61907;SDS011;47864;52.526;19.672;2023-07-30T02:49:37;15.15;;;6.90;;
61907;SDS011;47864;52.526;19.672;2023-07-30T02:51:39;16.13;;;6.65;;
61907;SDS011;47864;52.526;19.672;2023-07-30T02:53:42;10.90;;;6.68;;
61907;SDS011;47864;52.526;19.672;2023-07-30T02:55:44;14.35;;;6.65;;
61907;SDS011;47864;52.526;19.672;2023-07-30T02:57:46;12.10;;;6.85;;
61907;SDS011;47864;52.526;19.672;2023-07-30T02:59:47;13.23;;;7.10;;
61907;SDS011;47864;52.526;19.672;2023-07-30T03:01:49;12.15;;;6.57;;
61907;SDS011;47864;52.526;19.672;2023-07-30T03:03:50;11.32;;;6.45;;
61907;SDS011;47864;52.526;19.672;2023-07-30T03:05:52;11.32;;;6.50;;
61907;SDS011;47864;52.526;19.672;2023-07-30T03:07:54;14.93;;;7.03;;
61907;SDS011;47864;52.526;19.672;2023-07-30T03:09:55;12.60;;;7.10;;
61907;SDS011;47864;52.526;19.672;2023-07-30T03:11:57;10.02;;;6.43;;
61907;SDS011;47864;52.526;19.672;2023-07-30T03:13:58;9.65;;;6.72;;
61907;SDS011;47864;52.526;19.672;2023-07-30T03:16:00;11.38;;;7.30;;
61907;SDS011;47864;52.526;19.672;2023-07-30T03:18:01;14.32;;;7.95;;
61907;SDS011;47864;52.526;19.672;2023-07-30T03:20:04;10.98;;;7.85;;
61907;SDS011;47864;52.526;19.672;2023-07-30T03:22:06;13.77;;;8.27;;
61907;SDS011;47864;52.526;19.672;2023-07-30T03:24:07;16.17;;;7.80;;
61907;SDS011;47864;52.526;19.672;2023-07-30T03:26:10;14.93;;;8.93;;
61907;SDS011;47864;52.526;19.672;2023-07-30T03:28:12;18.95;;;8.98;;
61907;SDS011;47864;52.526;19.672;2023-07-30T03:30:13;18.52;;;8.88;;
61907;SDS011;47864;52.526;19.672;2023-07-30T03:32:15;16.10;;;8.73;;
61907;SDS011;47864;52.526;19.672;2023-07-30T03:34:16;14.55;;;8.75;;
61907;SDS011;47864;52.526;19.672;2023-07-30T03:36:18;15.90;;;9.05;;
61907;SDS011;47864;52.526;19.672;2023-07-30T03:38:20;18.45;;;8.80;;
61907;SDS011;47864;52.526;19.672;2023-07-30T03:40:21;16.92;;;9.20;;
61907;SDS011;47864;52.526;19.672;2023-07-30T03:42:23;16.05;;;9.00;;
61907;SDS011;47864;52.526;19.672;2023-07-30T03:44:24;16.15;;;9.43;;
61907;SDS011;47864;52.526;19.672;2023-07-30T03:46:26;15.30;;;9.32;;
61907;SDS011;47864;52.526;19.672;2023-07-30T03:48:27;15.57;;;8.52;;
61907;SDS011;47864;52.526;19.672;2023-07-30T03:50:30;15.18;;;8.93;;
61907;SDS011;47864;52.526;19.672;2023-07-30T03:52:31;14.57;;;9.23;;
61907;SDS011;47864;52.526;19.672;2023-07-30T03:54:33;15.93;;;8.82;;
61907;SDS011;47864;52.526;19.672;2023-07-30T03:56:35;18.52;;;9.48;;
61907;SDS011;47864;52.526;19.672;2023-07-30T03:58:36;15.18;;;9.48;;
61907;SDS011;47864;52.526;19.672;2023-07-30T04:00:38;15.93;;;8.85;;
61907;SDS011;47864;52.526;19.672;2023-07-30T04:02:39;17.95;;;9.20;;
61907;SDS011;47864;52.526;19.672;2023-07-30T04:04:41;17.17;;;9.90;;
61907;SDS011;47864;52.526;19.672;2023-07-30T04:06:43;19.80;;;9.40;;
61907;SDS011;47864;52.526;19.672;2023-07-30T04:08:45;17.00;;;9.30;;
61907;SDS011;47864;52.526;19.672;2023-07-30T04:10:46;18.98;;;9.93;;
61907;SDS011;47864;52.526;19.672;2023-07-30T04:12:48;23.60;;;10.43;;
61907;SDS011;47864;52.526;19.672;2023-07-30T04:14:50;22.15;;;10.57;;
61907;SDS011;47864;52.526;19.672;2023-07-30T04:16:51;21.95;;;10.65;;
61907;SDS011;47864;52.526;19.672;2023-07-30T04:18:53;23.40;;;11.05;;
61907;SDS011;47864;52.526;19.672;2023-07-30T04:20:55;23.77;;;11.00;;
61907;SDS011;47864;52.526;19.672;2023-07-30T04:22:56;24.25;;;10.57;;
61907;SDS011;47864;52.526;19.672;2023-07-30T04:24:58;28.63;;;11.52;;
61907;SDS011;47864;52.526;19.672;2023-07-30T04:27:00;27.52;;;10.43;;
61907;SDS011;47864;52.526;19.672;2023-07-30T04:29:02;22.77;;;10.55;;
61907;SDS011;47864;52.526;19.672;2023-07-30T04:31:03;25.02;;;11.05;;
61907;SDS011;47864;52.526;19.672;2023-07-30T04:33:05;23.50;;;10.80;;
61907;SDS011;47864;52.526;19.672;2023-07-30T04:35:07;24.38;;;10.57;;
61907;SDS011;47864;52.526;19.672;2023-07-30T04:37:08;22.30;;;10.27;;
61907;SDS011;47864;52.526;19.672;2023-07-30T04:39:10;24.73;;;11.60;;
61907;SDS011;47864;52.526;19.672;2023-07-30T04:41:11;25.45;;;11.00;;
61907;SDS011;47864;52.526;19.672;2023-07-30T04:43:13;29.00;;;11.82;;
61907;SDS011;47864;52.526;19.672;2023-07-30T04:45:15;22.98;;;11.68;;
61907;SDS011;47864;52.526;19.672;2023-07-30T04:47:16;23.35;;;12.32;;
61907;SDS011;47864;52.526;19.672;2023-07-30T04:49:18;27.30;;;11.57;;
61907;SDS011;47864;52.526;19.672;2023-07-30T04:51:20;19.15;;;10.02;;
61907;SDS011;47864;52.526;19.672;2023-07-30T04:53:21;22.48;;;10.90;;
61907;SDS011;47864;52.526;19.672;2023-07-30T04:55:23;24.48;;;10.50;;
61907;SDS011;47864;52.526;19.672;2023-07-30T04:57:25;23.10;;;10.50;;
61907;SDS011;47864;52.526;19.672;2023-07-30T04:59:26;19.88;;;10.60;;
61907;SDS011;47864;52.526;19.672;2023-07-30T05:01:28;21.42;;;11.82;;
61907;SDS011;47864;52.526;19.672;2023-07-30T05:03:30;20.20;;;11.45;;
61907;SDS011;47864;52.526;19.672;2023-07-30T05:05:31;23.92;;;11.93;;
61907;SDS011;47864;52.526;19.672;2023-07-30T05:07:33;18.85;;;11.05;;
61907;SDS011;47864;52.526;19.672;2023-07-30T05:09:35;21.60;;;10.75;;
61907;SDS011;47864;52.526;19.672;2023-07-30T05:11:36;17.85;;;10.65;;
61907;SDS011;47864;52.526;19.672;2023-07-30T05:13:38;16.55;;;10.55;;
61907;SDS011;47864;52.526;19.672;2023-07-30T05:15:40;16.92;;;10.48;;
61907;SDS011;47864;52.526;19.672;2023-07-30T05:17:41;15.20;;;10.15;;
61907;SDS011;47864;52.526;19.672;2023-07-30T05:19:43;22.35;;;10.63;;
61907;SDS011;47864;52.526;19.672;2023-07-30T05:21:44;16.45;;;10.32;;
61907;SDS011;47864;52.526;19.672;2023-07-30T05:23:46;15.57;;;9.95;;
61907;SDS011;47864;52.526;19.672;2023-07-30T05:25:48;14.43;;;9.35;;
61907;SDS011;47864;52.526;19.672;2023-07-30T05:27:51;14.32;;;9.13;;
61907;SDS011;47864;52.526;19.672;2023-07-30T05:29:52;15.80;;;9.63;;
61907;SDS011;47864;52.526;19.672;2023-07-30T05:31:54;16.58;;;9.50;;
61907;SDS011;47864;52.526;19.672;2023-07-30T05:33:56;15.38;;;9.60;;
61907;SDS011;47864;52.526;19.672;2023-07-30T05:35:57;16.48;;;9.45;;
61907;SDS011;47864;52.526;19.672;2023-07-30T05:37:59;18.58;;;10.32;;
61907;SDS011;47864;52.526;19.672;2023-07-30T05:40:00;13.07;;;8.88;;
61907;SDS011;47864;52.526;19.672;2023-07-30T05:42:02;14.10;;;9.15;;
61907;SDS011;47864;52.526;19.672;2023-07-30T05:44:04;14.63;;;9.60;;
61907;SDS011;47864;52.526;19.672;2023-07-30T05:46:05;13.63;;;9.23;;
61907;SDS011;47864;52.526;19.672;2023-07-30T05:48:07;16.73;;;9.63;;
61907;SDS011;47864;52.526;19.672;2023-07-30T05:50:08;15.73;;;9.63;;
61907;SDS011;47864;52.526;19.672;2023-07-30T05:52:10;13.55;;;9.55;;
61907;SDS011;47864;52.526;19.672;2023-07-30T05:54:12;18.63;;;8.73;;
61907;SDS011;47864;52.526;19.672;2023-07-30T05:56:13;14.80;;;8.68;;
61907;SDS011;47864;52.526;19.672;2023-07-30T05:58:15;15.63;;;8.40;;
61907;SDS011;47864;52.526;19.672;2023-07-30T06:00:16;13.65;;;8.18;;
61907;SDS011;47864;52.526;19.672;2023-07-30T06:02:18;12.85;;;8.43;;
61907;SDS011;47864;52.526;19.672;2023-07-30T06:06:23;15.20;;;9.23;;
61907;SDS011;47864;52.526;19.672;2023-07-30T06:08:25;13.82;;;8.55;;
61907;SDS011;47864;52.526;19.672;2023-07-30T06:10:26;13.52;;;8.75;;
61907;SDS011;47864;52.526;19.672;2023-07-30T06:12:28;12.15;;;8.57;;
61907;SDS011;47864;52.526;19.672;2023-07-30T06:14:29;13.02;;;8.93;;
61907;SDS011;47864;52.526;19.672;2023-07-30T06:16:31;11.38;;;8.45;;
61907;SDS011;47864;52.526;19.672;2023-07-30T06:18:32;13.88;;;9.25;;
61907;SDS011;47864;52.526;19.672;2023-07-30T06:20:34;14.15;;;9.40;;
61907;SDS011;47864;52.526;19.672;2023-07-30T06:22:35;15.38;;;10.40;;
61907;SDS011;47864;52.526;19.672;2023-07-30T06:24:37;16.15;;;10.65;;
61907;SDS011;47864;52.526;19.672;2023-07-30T06:26:38;18.25;;;11.20;;
61907;SDS011;47864;52.526;19.672;2023-07-30T06:28:40;19.88;;;11.23;;
61907;SDS011;47864;52.526;19.672;2023-07-30T06:30:42;19.65;;;12.07;;
61907;SDS011;47864;52.526;19.672;2023-07-30T06:32:43;16.77;;;10.50;;
61907;SDS011;47864;52.526;19.672;2023-07-30T06:34:45;16.80;;;10.75;;
61907;SDS011;47864;52.526;19.672;2023-07-30T06:36:46;16.98;;;10.07;;
61907;SDS011;47864;52.526;19.672;2023-07-30T06:38:48;14.30;;;9.50;;
61907;SDS011;47864;52.526;19.672;2023-07-30T06:40:50;23.02;;;10.57;;
61907;SDS011;47864;52.526;19.672;2023-07-30T06:42:51;14.40;;;9.50;;
61907;SDS011;47864;52.526;19.672;2023-07-30T06:44:53;15.52;;;10.68;;
61907;SDS011;47864;52.526;19.672;2023-07-30T06:46:54;21.48;;;10.10;;
61907;SDS011;47864;52.526;19.672;2023-07-30T06:48:56;17.63;;;10.52;;
61907;SDS011;47864;52.526;19.672;2023-07-30T06:50:57;17.63;;;9.57;;
61907;SDS011;47864;52.526;19.672;2023-07-30T06:52:59;15.95;;;9.77;;
61907;SDS011;47864;52.526;19.672;2023-07-30T06:55:01;13.32;;;9.38;;
61907;SDS011;47864;52.526;19.672;2023-07-30T06:57:03;15.75;;;9.60;;
61907;SDS011;47864;52.526;19.672;2023-07-30T06:59:05;14.90;;;9.38;;
61907;SDS011;47864;52.526;19.672;2023-07-30T07:01:06;14.07;;;9.80;;
61907;SDS011;47864;52.526;19.672;2023-07-30T07:03:08;14.65;;;9.75;;
61907;SDS011;47864;52.526;19.672;2023-07-30T07:05:10;18.73;;;10.05;;
61907;SDS011;47864;52.526;19.672;2023-07-30T07:07:11;14.70;;;9.98;;
61907;SDS011;47864;52.526;19.672;2023-07-30T07:09:13;16.45;;;10.05;;
61907;SDS011;47864;52.526;19.672;2023-07-30T07:11:14;17.30;;;9.77;;
61907;SDS011;47864;52.526;19.672;2023-07-30T07:13:16;16.85;;;10.60;;
61907;SDS011;47864;52.526;19.672;2023-07-30T07:15:17;21.27;;;13.95;;
61907;SDS011;47864;52.526;19.672;2023-07-30T07:17:19;17.83;;;11.07;;
61907;SDS011;47864;52.526;19.672;2023-07-30T07:19:20;17.67;;;10.05;;
61907;SDS011;47864;52.526;19.672;2023-07-30T07:21:22;13.48;;;9.65;;
61907;SDS011;47864;52.526;19.672;2023-07-30T07:23:23;13.43;;;8.75;;
61907;SDS011;47864;52.526;19.672;2023-07-30T07:25:25;12.35;;;8.75;;
61907;SDS011;47864;52.526;19.672;2023-07-30T07:27:27;12.90;;;8.38;;
61907;SDS011;47864;52.526;19.672;2023-07-30T07:29:28;12.15;;;7.95;;
61907;SDS011;47864;52.526;19.672;2023-07-30T07:31:29;12.70;;;7.95;;
61907;SDS011;47864;52.526;19.672;2023-07-30T07:35:34;15.75;;;8.15;;
61907;SDS011;47864;52.526;19.672;2023-07-30T07:37:36;9.80;;;6.95;;
61907;SDS011;47864;52.526;19.672;2023-07-30T07:39:37;12.68;;;7.47;;
61907;SDS011;47864;52.526;19.672;2023-07-30T07:41:39;9.15;;;7.38;;
61907;SDS011;47864;52.526;19.672;2023-07-30T07:43:41;12.35;;;7.55;;
61907;SDS011;47864;52.526;19.672;2023-07-30T07:45:43;11.55;;;8.63;;
61907;SDS011;47864;52.526;19.672;2023-07-30T07:47:44;12.02;;;7.25;;
61907;SDS011;47864;52.526;19.672;2023-07-30T07:49:47;11.18;;;7.75;;
61907;SDS011;47864;52.526;19.672;2023-07-30T07:51:48;10.02;;;7.30;;
61907;SDS011;47864;52.526;19.672;2023-07-30T07:53:50;9.50;;;7.53;;
61907;SDS011;47864;52.526;19.672;2023-07-30T07:55:51;11.07;;;7.07;;
61907;SDS011;47864;52.526;19.672;2023-07-30T07:57:53;9.35;;;7.15;;
61907;SDS011;47864;52.526;19.672;2023-07-30T07:59:54;9.35;;;7.35;;
61907;SDS011;47864;52.526;19.672;2023-07-30T08:01:56;11.63;;;7.38;;
61907;SDS011;47864;52.526;19.672;2023-07-30T08:03:57;9.02;;;6.50;;
61907;SDS011;47864;52.526;19.672;2023-07-30T08:05:59;12.68;;;7.32;;
61907;SDS011;47864;52.526;19.672;2023-07-30T08:08:00;12.90;;;5.70;;
61907;SDS011;47864;52.526;19.672;2023-07-30T08:10:02;8.40;;;6.10;;
61907;SDS011;47864;52.526;19.672;2023-07-30T08:12:04;8.00;;;5.97;;
61907;SDS011;47864;52.526;19.672;2023-07-30T08:14:06;8.00;;;6.22;;
61907;SDS011;47864;52.526;19.672;2023-07-30T08:16:07;7.90;;;6.13;;
61907;SDS011;47864;52.526;19.672;2023-07-30T08:18:09;9.57;;;6.40;;
61907;SDS011;47864;52.526;19.672;2023-07-30T08:20:10;7.00;;;5.75;;
61907;SDS011;47864;52.526;19.672;2023-07-30T08:22:12;8.13;;;5.70;;
61907;SDS011;47864;52.526;19.672;2023-07-30T08:24:14;8.45;;;6.20;;
61907;SDS011;47864;52.526;19.672;2023-07-30T08:26:15;9.13;;;6.43;;
61907;SDS011;47864;52.526;19.672;2023-07-30T08:28:17;10.55;;;6.93;;
61907;SDS011;47864;52.526;19.672;2023-07-30T08:30:18;10.77;;;6.00;;
61907;SDS011;47864;52.526;19.672;2023-07-30T08:32:20;7.80;;;6.00;;
61907;SDS011;47864;52.526;19.672;2023-07-30T08:34:22;7.05;;;5.80;;
61907;SDS011;47864;52.526;19.672;2023-07-30T08:36:23;8.50;;;5.50;;
61907;SDS011;47864;52.526;19.672;2023-07-30T08:38:25;7.55;;;5.65;;
61907;SDS011;47864;52.526;19.672;2023-07-30T08:40:27;7.88;;;5.50;;
61907;SDS011;47864;52.526;19.672;2023-07-30T08:42:28;11.38;;;5.85;;
61907;SDS011;47864;52.526;19.672;2023-07-30T08:44:30;7.40;;;5.13;;
61907;SDS011;47864;52.526;19.672;2023-07-30T08:46:32;7.97;;;5.50;;
61907;SDS011;47864;52.526;19.672;2023-07-30T08:48:34;7.00;;;5.18;;
61907;SDS011;47864;52.526;19.672;2023-07-30T08:50:35;7.47;;;4.80;;
61907;SDS011;47864;52.526;19.672;2023-07-30T08:52:38;6.97;;;5.33;;
61907;SDS011;47864;52.526;19.672;2023-07-30T08:54:40;9.43;;;4.95;;
61907;SDS011;47864;52.526;19.672;2023-07-30T08:56:42;6.45;;;4.82;;
61907;SDS011;47864;52.526;19.672;2023-07-30T08:58:44;9.65;;;5.05;;
61907;SDS011;47864;52.526;19.672;2023-07-30T09:02:58;7.07;;;4.75;;
61907;SDS011;47864;52.526;19.672;2023-07-30T09:05:01;8.18;;;5.18;;
61907;SDS011;47864;52.526;19.672;2023-07-30T09:07:03;6.35;;;4.97;;
61907;SDS011;47864;52.526;19.672;2023-07-30T09:09:09;7.07;;;5.55;;
61907;SDS011;47864;52.526;19.672;2023-07-30T09:11:11;10.07;;;5.13;;
61907;SDS011;47864;52.526;19.672;2023-07-30T09:13:14;9.98;;;5.20;;
61907;SDS011;47864;52.526;19.672;2023-07-30T09:15:29;6.97;;;5.05;;
61907;SDS011;47864;52.526;19.672;2023-07-30T09:17:34;8.05;;;4.95;;
61907;SDS011;47864;52.526;19.672;2023-07-30T09:19:36;9.13;;;4.35;;
61907;SDS011;47864;52.526;19.672;2023-07-30T09:21:38;6.63;;;4.30;;
61907;SDS011;47864;52.526;19.672;2023-07-30T09:23:43;6.95;;;4.18;;
61907;SDS011;47864;52.526;19.672;2023-07-30T09:25:48;5.00;;;3.70;;
61907;SDS011;47864;52.526;19.672;2023-07-30T09:27:50;5.15;;;3.97;;
61907;SDS011;47864;52.526;19.672;2023-07-30T09:29:53;6.50;;;4.05;;
61907;SDS011;47864;52.526;19.672;2023-07-30T09:31:55;6.32;;;3.97;;
61907;SDS011;47864;52.526;19.672;2023-07-30T09:33:57;5.57;;;4.18;;
61907;SDS011;47864;52.526;19.672;2023-07-30T09:36:01;4.88;;;4.00;;
61907;SDS011;47864;52.526;19.672;2023-07-30T09:38:03;9.68;;;4.30;;
61907;SDS011;47864;52.526;19.672;2023-07-30T09:40:06;7.25;;;3.85;;
61907;SDS011;47864;52.526;19.672;2023-07-30T09:42:09;5.55;;;3.88;;
61907;SDS011;47864;52.526;19.672;2023-07-30T09:44:10;5.28;;;3.70;;
61907;SDS011;47864;52.526;19.672;2023-07-30T09:46:12;6.47;;;3.40;;
61907;SDS011;47864;52.526;19.672;2023-07-30T09:48:14;6.65;;;3.65;;
61907;SDS011;47864;52.526;19.672;2023-07-30T09:50:17;4.35;;;3.10;;
61907;SDS011;47864;52.526;19.672;2023-07-30T09:52:19;5.68;;;3.80;;
61907;SDS011;47864;52.526;19.672;2023-07-30T09:54:22;6.70;;;3.85;;
61907;SDS011;47864;52.526;19.672;2023-07-30T09:56:24;5.30;;;3.30;;
61907;SDS011;47864;52.526;19.672;2023-07-30T09:58:25;6.93;;;3.60;;
61907;SDS011;47864;52.526;19.672;2023-07-30T10:00:27;6.95;;;3.40;;
61907;SDS011;47864;52.526;19.672;2023-07-30T10:02:30;6.68;;;4.07;;
61907;SDS011;47864;52.526;19.672;2023-07-30T10:04:33;4.47;;;3.53;;
61907;SDS011;47864;52.526;19.672;2023-07-30T10:06:39;4.75;;;3.03;;
61907;SDS011;47864;52.526;19.672;2023-07-30T10:08:46;4.18;;;3.20;;
61907;SDS011;47864;52.526;19.672;2023-07-30T10:10:48;5.80;;;3.30;;
61907;SDS011;47864;52.526;19.672;2023-07-30T10:12:50;4.13;;;3.33;;
61907;SDS011;47864;52.526;19.672;2023-07-30T10:14:54;5.55;;;3.50;;
61907;SDS011;47864;52.526;19.672;2023-07-30T10:16:57;5.75;;;3.22;;
61907;SDS011;47864;52.526;19.672;2023-07-30T10:19:01;7.97;;;3.15;;
61907;SDS011;47864;52.526;19.672;2023-07-30T10:21:02;6.90;;;3.13;;
61907;SDS011;47864;52.526;19.672;2023-07-30T10:23:04;4.15;;;2.90;;
61907;SDS011;47864;52.526;19.672;2023-07-30T10:25:06;4.78;;;3.40;;
61907;SDS011;47864;52.526;19.672;2023-07-30T10:27:13;3.90;;;2.95;;
61907;SDS011;47864;52.526;19.672;2023-07-30T10:29:24;4.75;;;2.70;;
61907;SDS011;47864;52.526;19.672;2023-07-30T10:31:34;4.75;;;2.50;;
61907;SDS011;47864;52.526;19.672;2023-07-30T10:33:44;5.10;;;2.65;;
61907;SDS011;47864;52.526;19.672;2023-07-30T10:35:54;5.90;;;3.00;;
61907;SDS011;47864;52.526;19.672;2023-07-30T10:37:55;4.28;;;2.80;;
61907;SDS011;47864;52.526;19.672;2023-07-30T10:39:57;4.72;;;2.90;;
61907;SDS011;47864;52.526;19.672;2023-07-30T10:41:58;5.88;;;2.92;;
61907;SDS011;47864;52.526;19.672;2023-07-30T10:44:04;3.67;;;2.70;;
61907;SDS011;47864;52.526;19.672;2023-07-30T10:46:06;8.52;;;3.10;;
61907;SDS011;47864;52.526;19.672;2023-07-30T10:48:09;4.88;;;2.60;;
61907;SDS011;47864;52.526;19.672;2023-07-30T10:50:10;5.85;;;2.20;;
61907;SDS011;47864;52.526;19.672;2023-07-30T10:52:12;5.10;;;2.30;;
61907;SDS011;47864;52.526;19.672;2023-07-30T10:54:13;4.22;;;2.40;;
61907;SDS011;47864;52.526;19.672;2023-07-30T10:56:17;6.13;;;2.70;;
61907;SDS011;47864;52.526;19.672;2023-07-30T10:58:22;4.70;;;2.50;;
61907;SDS011;47864;52.526;19.672;2023-07-30T11:00:25;4.88;;;2.55;;
61907;SDS011;47864;52.526;19.672;2023-07-30T11:02:27;7.90;;;2.75;;
61907;SDS011;47864;52.526;19.672;2023-07-30T11:04:33;4.30;;;2.92;;
61907;SDS011;47864;52.526;19.672;2023-07-30T11:06:36;6.10;;;3.10;;
61907;SDS011;47864;52.526;19.672;2023-07-30T11:08:39;4.32;;;2.72;;
61907;SDS011;47864;52.526;19.672;2023-07-30T11:10:42;4.30;;;3.15;;
61907;SDS011;47864;52.526;19.672;2023-07-30T11:12:47;4.40;;;3.00;;
61907;SDS011;47864;52.526;19.672;2023-07-30T11:14:49;6.57;;;2.60;;
61907;SDS011;47864;52.526;19.672;2023-07-30T11:16:56;5.05;;;2.63;;
61907;SDS011;47864;52.526;19.672;2023-07-30T11:18:59;4.80;;;2.60;;
61907;SDS011;47864;52.526;19.672;2023-07-30T11:23:21;4.60;;;2.75;;
61907;SDS011;47864;52.526;19.672;2023-07-30T11:25:24;5.55;;;2.50;;
61907;SDS011;47864;52.526;19.672;2023-07-30T11:27:25;3.75;;;2.60;;
61907;SDS011;47864;52.526;19.672;2023-07-30T11:29:27;10.40;;;3.10;;
61907;SDS011;47864;52.526;19.672;2023-07-30T11:31:28;3.78;;;2.40;;
61907;SDS011;47864;52.526;19.672;2023-07-30T11:33:30;4.55;;;2.47;;
61907;SDS011;47864;52.526;19.672;2023-07-30T11:35:32;3.53;;;2.20;;
61907;SDS011;47864;52.526;19.672;2023-07-30T11:37:33;5.82;;;2.70;;
61907;SDS011;47864;52.526;19.672;2023-07-30T11:39:36;6.20;;;2.57;;
61907;SDS011;47864;52.526;19.672;2023-07-30T11:41:38;6.78;;;2.38;;
61907;SDS011;47864;52.526;19.672;2023-07-30T11:43:41;3.70;;;2.08;;
61907;SDS011;47864;52.526;19.672;2023-07-30T11:45:44;3.72;;;2.38;;
61907;SDS011;47864;52.526;19.672;2023-07-30T11:47:46;3.65;;;2.28;;
61907;SDS011;47864;52.526;19.672;2023-07-30T11:49:57;5.75;;;2.17;;
61907;SDS011;47864;52.526;19.672;2023-07-30T11:52:08;5.15;;;2.33;;
61907;SDS011;47864;52.526;19.672;2023-07-30T11:54:18;9.80;;;2.60;;
61907;SDS011;47864;52.526;19.672;2023-07-30T11:56:24;7.97;;;2.70;;
61907;SDS011;47864;52.526;19.672;2023-07-30T11:58:28;4.75;;;3.10;;
61907;SDS011;47864;52.526;19.672;2023-07-30T12:00:31;6.13;;;2.90;;
61907;SDS011;47864;52.526;19.672;2023-07-30T12:02:33;5.63;;;2.88;;
61907;SDS011;47864;52.526;19.672;2023-07-30T12:04:44;4.78;;;2.72;;
61907;SDS011;47864;52.526;19.672;2023-07-30T12:06:53;6.05;;;2.40;;